createdAt,value
2019-03-30T00:00:36.604Z,0
2019-03-30T00:01:36.312Z,0
2019-03-30T00:02:40.325Z,0
2019-03-30T00:03:36.567Z,0
2019-03-30T00:04:36.794Z,0
2019-03-30T00:05:36.319Z,0
2019-03-30T00:06:36.531Z,0
2019-03-30T00:07:36.787Z,0
2019-03-30T00:08:36.508Z,0
2019-03-30T00:09:36.744Z,0
2019-03-30T00:10:36.507Z,0
2019-03-30T00:11:36.518Z,0
2019-03-30T00:12:36.747Z,0
2019-03-30T00:13:36.482Z,0
2019-03-30T00:14:36.231Z,0
2019-03-30T00:15:36.508Z,0
2019-03-30T00:16:36.231Z,0
2019-03-30T00:17:36.459Z,0
2019-03-30T00:18:36.215Z,0
2019-03-30T00:19:42.419Z,0
2019-03-30T00:20:36.242Z,0
2019-03-30T00:21:36.484Z,0
2019-03-30T00:22:36.432Z,0
2019-03-30T00:23:36.434Z,0
2019-03-30T00:24:36.505Z,0
2019-03-30T00:25:36.506Z,0
2019-03-30T00:26:36.393Z,0
2019-03-30T00:27:36.386Z,0
2019-03-30T00:28:36.132Z,0
2019-03-30T00:29:36.141Z,0
2019-03-30T00:30:36.145Z,0
2019-03-30T00:31:36.116Z,0
2019-03-30T00:32:36.352Z,0
2019-03-30T00:33:36.101Z,0
2019-03-30T00:34:36.080Z,0
2019-03-30T00:35:36.582Z,0
2019-03-30T00:36:36.405Z,0
2019-03-30T00:37:36.594Z,0
2019-03-30T00:38:36.943Z,0
2019-03-30T00:39:36.571Z,0
2019-03-30T00:40:36.086Z,0
2019-03-30T00:41:36.540Z,0
2019-03-30T00:42:36.045Z,0
2019-03-30T00:43:36.278Z,0
2019-03-30T00:44:36.272Z,0
2019-03-30T00:45:36.084Z,0
2019-03-30T00:46:36.079Z,0
2019-03-30T00:47:36.284Z,0
2019-03-30T00:48:37.124Z,0
2019-03-30T00:49:48.327Z,0
2019-03-30T00:50:36.134Z,0
2019-03-30T00:51:36.005Z,0
2019-03-30T00:52:36.476Z,0
2019-03-30T00:53:36.220Z,0
2019-03-30T00:54:36.437Z,0
2019-03-30T00:55:36.251Z,0
2019-03-30T00:56:35.932Z,0
2019-03-30T00:57:36.182Z,0
2019-03-30T00:58:35.926Z,0
2019-03-30T00:59:35.661Z,0
2019-03-30T01:00:35.923Z,0
2019-03-30T01:01:35.898Z,0
2019-03-30T01:02:36.138Z,0
2019-03-30T01:03:35.891Z,0
2019-03-30T01:04:35.638Z,0
2019-03-30T01:05:35.643Z,0
2019-03-30T01:06:36.133Z,0
2019-03-30T01:07:35.601Z,0
2019-03-30T01:08:36.096Z,0
2019-03-30T01:09:36.081Z,0
2019-03-30T01:10:36.393Z,0
2019-03-30T01:11:36.075Z,0
2019-03-30T01:12:36.071Z,0
2019-03-30T01:13:36.066Z,0
2019-03-30T01:14:36.082Z,0
2019-03-30T01:15:35.852Z,0
2019-03-30T01:16:36.048Z,0
2019-03-30T01:17:36.037Z,0
2019-03-30T01:18:35.541Z,0
2019-03-30T01:19:35.576Z,0
2019-03-30T01:20:36.277Z,0
2019-03-30T01:21:36.036Z,0
2019-03-30T01:22:35.508Z,0
2019-03-30T01:23:36.251Z,0
2019-03-30T01:24:35.532Z,0
2019-03-30T01:25:36.234Z,0
2019-03-30T01:26:36.042Z,0
2019-03-30T01:27:35.966Z,0
2019-03-30T01:28:35.987Z,0
2019-03-30T01:29:36.253Z,0
2019-03-30T01:30:35.959Z,0
2019-03-30T01:31:36.191Z,0
2019-03-30T01:32:37.505Z,0
2019-03-30T01:33:35.701Z,0
2019-03-30T01:34:35.912Z,0
2019-03-30T01:35:36.089Z,0
2019-03-30T01:36:35.905Z,0
2019-03-30T01:37:36.137Z,0
2019-03-30T01:38:35.627Z,0
2019-03-30T01:39:35.912Z,0
2019-03-30T01:40:35.713Z,0
2019-03-30T01:41:35.856Z,0
2019-03-30T01:42:35.852Z,0
2019-03-30T01:43:35.602Z,0
2019-03-30T01:44:35.589Z,0
2019-03-30T01:45:36.187Z,0
2019-03-30T01:46:35.826Z,0
2019-03-30T01:47:36.089Z,0
2019-03-30T01:48:35.607Z,0
2019-03-30T01:49:35.557Z,0
2019-03-30T01:50:36.074Z,0
2019-03-30T01:51:35.804Z,0
2019-03-30T01:52:35.558Z,0
2019-03-30T01:53:36.025Z,0
2019-03-30T01:54:35.772Z,0
2019-03-30T01:55:35.536Z,0
2019-03-30T01:56:35.806Z,0
2019-03-30T01:57:35.502Z,0
2019-03-30T01:58:35.301Z,0
2019-03-30T01:59:35.498Z,0
2019-03-30T02:00:35.513Z,0
2019-03-30T02:01:35.712Z,0
2019-03-30T02:02:35.467Z,0
2019-03-30T02:03:35.445Z,0
2019-03-30T02:04:35.690Z,0
2019-03-30T02:05:35.749Z,0
2019-03-30T02:06:35.200Z,0
2019-03-30T02:07:35.663Z,0
2019-03-30T02:08:35.656Z,0
2019-03-30T02:09:35.665Z,0
2019-03-30T02:10:35.903Z,0
2019-03-30T02:11:35.452Z,0
2019-03-30T02:12:35.390Z,0
2019-03-30T02:13:35.635Z,0
2019-03-30T02:14:35.617Z,0
2019-03-30T02:15:35.660Z,0
2019-03-30T02:16:35.852Z,0
2019-03-30T02:17:35.594Z,0
2019-03-30T02:18:35.333Z,0
2019-03-30T02:19:35.610Z,0
2019-03-30T02:20:37.793Z,0
2019-03-30T02:21:35.318Z,0
2019-03-30T02:22:35.555Z,0
2019-03-30T02:23:35.562Z,0
2019-03-30T02:24:35.600Z,0
2019-03-30T02:25:35.813Z,0
2019-03-30T02:26:35.558Z,0
2019-03-30T02:27:35.521Z,0
2019-03-30T02:28:35.758Z,0
2019-03-30T02:29:35.496Z,0
2019-03-30T02:30:35.821Z,0
2019-03-30T02:31:35.543Z,0
2019-03-30T02:32:35.747Z,0
2019-03-30T02:33:35.474Z,0
2019-03-30T02:34:35.724Z,0
2019-03-30T02:35:35.278Z,0
2019-03-30T02:36:35.198Z,0
2019-03-30T02:37:35.473Z,0
2019-03-30T02:38:35.460Z,0
2019-03-30T02:39:35.460Z,0
2019-03-30T02:40:35.463Z,0
2019-03-30T02:41:35.655Z,0
2019-03-30T02:42:35.447Z,0
2019-03-30T02:43:35.413Z,0
2019-03-30T02:44:35.662Z,0
2019-03-30T02:45:35.674Z,0
2019-03-30T02:46:35.632Z,0
2019-03-30T02:47:35.126Z,0
2019-03-30T02:48:35.505Z,0
2019-03-30T02:49:35.353Z,0
2019-03-30T02:50:53.061Z,0
2019-03-30T02:51:35.325Z,0
2019-03-30T02:52:35.613Z,0
2019-03-30T02:53:35.585Z,0
2019-03-30T02:54:35.310Z,0
2019-03-30T02:55:35.311Z,0
2019-03-30T02:56:35.567Z,0
2019-03-30T02:57:35.452Z,0
2019-03-30T02:58:35.571Z,0
2019-03-30T02:59:35.524Z,0
2019-03-30T03:00:35.550Z,0
2019-03-30T03:01:35.252Z,0
2019-03-30T03:02:35.034Z,0
2019-03-30T03:03:35.511Z,0
2019-03-30T03:04:35.511Z,0
2019-03-30T03:05:35.321Z,0
2019-03-30T03:06:35.225Z,0
2019-03-30T03:07:35.472Z,0
2019-03-30T03:08:38.603Z,0
2019-03-30T03:09:35.448Z,0
2019-03-30T03:10:35.459Z,0
2019-03-30T03:11:35.455Z,0
2019-03-30T03:12:35.448Z,0
2019-03-30T03:13:35.159Z,0
2019-03-30T03:14:34.918Z,0
2019-03-30T03:15:35.445Z,0
2019-03-30T03:16:35.134Z,0
2019-03-30T03:17:35.145Z,0
2019-03-30T03:18:35.382Z,0
2019-03-30T03:19:35.186Z,0
2019-03-30T03:20:35.413Z,0
2019-03-30T03:21:35.386Z,0
2019-03-30T03:22:35.091Z,0
2019-03-30T03:23:35.104Z,0
2019-03-30T03:24:35.081Z,0
2019-03-30T03:25:35.144Z,0
2019-03-30T03:26:35.192Z,0
2019-03-30T03:27:35.309Z,0
2019-03-30T03:28:35.313Z,0
2019-03-30T03:29:35.292Z,0
2019-03-30T03:30:35.689Z,0
2019-03-30T03:31:35.323Z,0
2019-03-30T03:32:35.349Z,0
2019-03-30T03:33:35.328Z,0
2019-03-30T03:34:35.059Z,0
2019-03-30T03:35:35.344Z,0
2019-03-30T03:36:34.990Z,0
2019-03-30T03:37:51.501Z,0
2019-03-30T03:38:34.968Z,0
2019-03-30T03:39:35.205Z,0
2019-03-30T03:40:35.209Z,0
2019-03-30T03:41:34.950Z,0
2019-03-30T03:42:35.182Z,0
2019-03-30T03:43:35.178Z,0
2019-03-30T03:44:34.969Z,0
2019-03-30T03:45:35.266Z,0
2019-03-30T03:46:35.166Z,0
2019-03-30T03:47:35.216Z,0
2019-03-30T03:48:35.135Z,0
2019-03-30T03:49:35.248Z,0
2019-03-30T03:50:34.688Z,0
2019-03-30T03:51:35.347Z,0
2019-03-30T03:52:35.364Z,0
2019-03-30T03:53:35.433Z,0
2019-03-30T03:54:34.909Z,0
2019-03-30T03:55:35.129Z,0
2019-03-30T03:56:35.351Z,0
2019-03-30T03:57:35.421Z,0
2019-03-30T03:58:34.721Z,0
2019-03-30T03:59:35.037Z,0
2019-03-30T04:00:35.262Z,0
2019-03-30T04:01:34.964Z,0
2019-03-30T04:02:35.267Z,0
2019-03-30T04:03:35.290Z,0
2019-03-30T04:04:35.383Z,0
2019-03-30T04:05:35.070Z,0
2019-03-30T04:06:35.278Z,0
2019-03-30T04:07:35.324Z,0
2019-03-30T04:08:34.965Z,0
2019-03-30T04:09:35.296Z,0
2019-03-30T04:10:35.293Z,0
2019-03-30T04:11:34.673Z,0
2019-03-30T04:12:34.932Z,0
2019-03-30T04:13:34.973Z,0
2019-03-30T04:14:34.432Z,0
2019-03-30T04:15:34.761Z,0
2019-03-30T04:16:34.888Z,0
2019-03-30T04:17:34.409Z,0
2019-03-30T04:18:34.649Z,0
2019-03-30T04:19:34.880Z,0
2019-03-30T04:20:34.651Z,0
2019-03-30T04:21:50.601Z,0
2019-03-30T04:22:34.582Z,0
2019-03-30T04:23:34.556Z,0
2019-03-30T04:24:34.546Z,0
2019-03-30T04:25:34.921Z,0
2019-03-30T04:26:34.300Z,0
2019-03-30T04:27:34.761Z,0
2019-03-30T04:28:34.749Z,0
2019-03-30T04:29:34.771Z,0
2019-03-30T04:30:34.923Z,0
2019-03-30T04:31:34.486Z,0
2019-03-30T04:32:34.253Z,0
2019-03-30T04:33:34.715Z,0
2019-03-30T04:34:34.219Z,4
2019-03-30T04:35:34.479Z,4
2019-03-30T04:36:33.953Z,4
2019-03-30T04:37:34.712Z,0
2019-03-30T04:38:34.656Z,4
2019-03-30T04:39:34.403Z,4
2019-03-30T04:40:34.466Z,4
2019-03-30T04:41:34.368Z,4
2019-03-30T04:42:34.631Z,4
2019-03-30T04:43:34.603Z,8
2019-03-30T04:44:34.345Z,8
2019-03-30T04:45:34.411Z,12
2019-03-30T04:46:34.589Z,12
2019-03-30T04:47:34.315Z,12
2019-03-30T04:48:36.613Z,16
2019-03-30T04:49:34.567Z,20
2019-03-30T04:50:34.587Z,24
2019-03-30T04:51:34.519Z,28
2019-03-30T04:52:34.505Z,32
2019-03-30T04:53:34.253Z,40
2019-03-30T04:54:34.235Z,44
2019-03-30T04:55:34.266Z,52
2019-03-30T04:56:34.329Z,60
2019-03-30T04:57:34.458Z,68
2019-03-30T04:58:34.280Z,76
2019-03-30T04:59:34.443Z,88
2019-03-30T05:00:34.257Z,104
2019-03-30T05:01:34.166Z,112
2019-03-30T05:02:34.412Z,128
2019-03-30T05:03:34.194Z,144
2019-03-30T05:04:34.392Z,160
2019-03-30T05:05:34.435Z,184
2019-03-30T05:06:33.870Z,200
2019-03-30T05:07:33.878Z,224
2019-03-30T05:08:34.344Z,252
2019-03-30T05:09:33.840Z,276
2019-03-30T05:10:33.907Z,300
2019-03-30T05:11:34.314Z,328
2019-03-30T05:12:33.805Z,360
2019-03-30T05:13:34.058Z,392
2019-03-30T05:14:34.295Z,424
2019-03-30T05:15:34.346Z,452
2019-03-30T05:16:34.010Z,488
2019-03-30T05:17:51.118Z,540
2019-03-30T05:18:34.050Z,572
2019-03-30T05:19:34.307Z,612
2019-03-30T05:20:33.983Z,660
2019-03-30T05:21:33.714Z,708
2019-03-30T05:22:33.728Z,760
2019-03-30T05:23:33.715Z,812
2019-03-30T05:24:33.964Z,864
2019-03-30T05:25:33.937Z,912
2019-03-30T05:26:33.663Z,956
2019-03-30T05:27:34.141Z,1004
2019-03-30T05:28:34.159Z,1056
2019-03-30T05:29:33.893Z,1108
2019-03-30T05:30:33.977Z,1168
2019-03-30T05:31:33.614Z,1232
2019-03-30T05:32:33.599Z,1296
2019-03-30T05:33:33.847Z,1368
2019-03-30T05:34:33.610Z,1500
2019-03-30T05:35:33.646Z,1712
2019-03-30T05:36:33.570Z,1920
2019-03-30T05:37:34.051Z,1976
2019-03-30T05:38:34.051Z,1984
2019-03-30T05:39:33.802Z,2044
2019-03-30T05:40:33.777Z,2124
2019-03-30T05:41:33.526Z,2160
2019-03-30T05:42:33.756Z,2212
2019-03-30T05:43:33.251Z,2260
2019-03-30T05:44:33.738Z,2284
2019-03-30T05:45:33.964Z,2324
2019-03-30T05:46:33.211Z,2364
2019-03-30T05:47:33.952Z,2392
2019-03-30T05:48:33.680Z,2424
2019-03-30T05:49:33.694Z,2476
2019-03-30T05:50:33.421Z,2540
2019-03-30T05:51:33.650Z,2600
2019-03-30T05:52:35.553Z,2648
2019-03-30T05:53:33.875Z,2696
2019-03-30T05:54:33.626Z,2744
2019-03-30T05:55:33.690Z,2792
2019-03-30T05:56:33.345Z,2832
2019-03-30T05:57:33.336Z,2876
2019-03-30T05:58:33.595Z,2924
2019-03-30T05:59:33.836Z,2968
2019-03-30T06:00:33.308Z,3016
2019-03-30T06:01:33.550Z,3068
2019-03-30T06:02:33.892Z,3108
2019-03-30T06:03:33.785Z,3144
2019-03-30T06:04:33.527Z,3168
2019-03-30T06:05:33.271Z,3184
2019-03-30T06:06:33.507Z,3196
2019-03-30T06:07:33.781Z,3208
2019-03-30T06:08:33.736Z,3228
2019-03-30T06:09:33.729Z,3264
2019-03-30T06:10:33.592Z,3312
2019-03-30T06:11:33.700Z,3356
2019-03-30T06:12:33.561Z,3388
2019-03-30T06:13:33.199Z,3424
2019-03-30T06:14:33.447Z,3460
2019-03-30T06:15:33.430Z,3500
2019-03-30T06:16:32.911Z,3528
2019-03-30T06:17:33.412Z,3564
2019-03-30T06:18:33.178Z,3608
2019-03-30T06:19:32.895Z,3660
2019-03-30T06:20:33.429Z,3712
2019-03-30T06:21:33.605Z,3740
2019-03-30T06:22:46.586Z,3800
2019-03-30T06:23:33.658Z,3884
2019-03-30T06:24:33.378Z,3992
2019-03-30T06:25:33.640Z,4076
2019-03-30T06:26:33.320Z,4128
2019-03-30T06:27:33.064Z,4168
2019-03-30T06:28:33.551Z,4208
2019-03-30T06:29:33.056Z,4272
2019-03-30T06:30:33.549Z,4360
2019-03-30T06:31:33.270Z,4480
2019-03-30T06:32:33.506Z,4588
2019-03-30T06:33:33.016Z,4692
2019-03-30T06:34:33.265Z,4788
2019-03-30T06:35:33.542Z,4852
2019-03-30T06:36:32.990Z,4904
2019-03-30T06:37:33.492Z,4952
2019-03-30T06:38:33.215Z,4964
2019-03-30T06:39:33.280Z,4952
2019-03-30T06:40:34.053Z,4956
2019-03-30T06:41:33.211Z,4992
2019-03-30T06:42:33.183Z,5044
2019-03-30T06:43:32.940Z,5128
2019-03-30T06:44:33.454Z,5212
2019-03-30T06:45:33.457Z,5312
2019-03-30T06:46:33.409Z,5508
2019-03-30T06:47:33.171Z,5888
2019-03-30T06:48:35.894Z,6428
2019-03-30T06:49:33.149Z,6996
2019-03-30T06:50:33.220Z,7532
2019-03-30T06:51:32.873Z,7904
2019-03-30T06:52:33.124Z,8164
2019-03-30T06:53:32.870Z,8372
2019-03-30T06:54:32.850Z,8512
2019-03-30T06:55:33.125Z,8428
2019-03-30T06:56:33.333Z,8636
2019-03-30T06:57:32.941Z,8696
2019-03-30T06:58:35.601Z,8784
2019-03-30T06:59:33.335Z,8844
2019-03-30T07:00:33.357Z,8896
2019-03-30T07:01:33.121Z,8736
2019-03-30T07:02:32.828Z,8312
2019-03-30T07:03:33.096Z,7776
2019-03-30T07:04:32.819Z,7484
2019-03-30T07:05:33.325Z,7468
2019-03-30T07:06:33.081Z,7520
2019-03-30T07:07:32.835Z,7536
2019-03-30T07:08:33.309Z,7656
2019-03-30T07:09:32.822Z,7912
2019-03-30T07:10:33.419Z,8068
2019-03-30T07:11:33.063Z,8008
2019-03-30T07:12:33.059Z,7712
2019-03-30T07:13:33.322Z,7456
2019-03-30T07:14:33.047Z,7740
2019-03-30T07:15:33.365Z,8108
2019-03-30T07:16:33.075Z,8112
2019-03-30T07:17:33.047Z,8060
2019-03-30T07:18:33.057Z,8344
2019-03-30T07:19:33.064Z,8928
2019-03-30T07:20:32.878Z,9260
2019-03-30T07:21:33.047Z,9448
2019-03-30T07:22:32.802Z,9564
2019-03-30T07:23:33.042Z,9576
2019-03-30T07:24:33.044Z,9664
2019-03-30T07:25:32.531Z,9748
2019-03-30T07:26:32.801Z,9844
2019-03-30T07:27:33.289Z,9900
2019-03-30T07:28:32.794Z,9916
2019-03-30T07:29:33.067Z,9912
2019-03-30T07:30:33.323Z,9920
2019-03-30T07:31:33.039Z,9952
2019-03-30T07:32:32.794Z,9936
2019-03-30T07:33:32.786Z,9968
2019-03-30T07:34:33.300Z,9992
2019-03-30T07:35:32.829Z,10004
2019-03-30T07:36:32.823Z,10044
2019-03-30T07:37:33.292Z,10056
2019-03-30T07:38:32.576Z,10076
2019-03-30T07:39:33.069Z,10060
2019-03-30T07:40:36.256Z,10052
2019-03-30T07:41:32.803Z,10048
2019-03-30T07:42:32.810Z,10052
2019-03-30T07:43:33.298Z,10064
2019-03-30T07:44:32.798Z,10060
2019-03-30T07:45:33.050Z,10044
2019-03-30T07:46:33.061Z,10024
2019-03-30T07:47:32.567Z,10000
2019-03-30T07:48:33.058Z,9964
2019-03-30T07:49:33.093Z,9928
2019-03-30T07:50:33.175Z,9864
2019-03-30T07:51:35.667Z,9772
2019-03-30T07:52:33.341Z,9676
2019-03-30T07:53:48.256Z,9580
2019-03-30T07:54:33.105Z,9576
2019-03-30T07:55:32.887Z,9532
2019-03-30T07:56:32.576Z,9524
2019-03-30T07:57:33.318Z,9528
2019-03-30T07:58:33.329Z,9540
2019-03-30T07:59:33.380Z,9472
2019-03-30T08:00:38.040Z,9368
2019-03-30T08:01:33.100Z,9272
2019-03-30T08:02:33.351Z,9108
2019-03-30T08:03:32.856Z,8944
2019-03-30T08:04:35.923Z,8868
2019-03-30T08:05:33.386Z,8784
2019-03-30T08:06:33.103Z,8756
2019-03-30T08:07:33.369Z,8744
2019-03-30T08:08:33.387Z,8728
2019-03-30T08:09:33.121Z,8728
2019-03-30T08:10:32.646Z,8688
2019-03-30T08:11:32.879Z,8692
2019-03-30T08:12:33.370Z,9084
2019-03-30T08:13:32.888Z,9288
2019-03-30T08:14:33.145Z,9244
2019-03-30T08:15:33.399Z,9196
2019-03-30T08:16:33.156Z,9184
2019-03-30T08:17:32.902Z,9120
2019-03-30T08:18:32.910Z,9088
2019-03-30T08:19:33.156Z,9044
2019-03-30T08:20:33.454Z,8992
2019-03-30T08:21:32.905Z,8316
2019-03-30T08:22:33.406Z,8568
2019-03-30T08:23:46.462Z,8500
2019-03-30T08:24:34.286Z,8452
2019-03-30T08:25:33.441Z,8404
2019-03-30T08:26:35.455Z,8220
2019-03-30T08:27:33.189Z,8252
2019-03-30T08:28:33.467Z,8264
2019-03-30T08:29:33.186Z,8284
2019-03-30T08:30:33.266Z,8288
2019-03-30T08:31:33.467Z,8288
2019-03-30T08:32:33.195Z,8280
2019-03-30T08:33:32.978Z,8428
2019-03-30T08:34:33.190Z,8460
2019-03-30T08:35:32.943Z,8504
2019-03-30T08:36:33.481Z,8508
2019-03-30T08:37:33.451Z,8492
2019-03-30T08:38:33.447Z,8472
2019-03-30T08:39:32.976Z,8456
2019-03-30T08:40:33.552Z,8444
2019-03-30T08:41:33.208Z,8340
2019-03-30T08:42:32.734Z,8276
2019-03-30T08:43:32.754Z,8320
2019-03-30T08:44:32.989Z,8356
2019-03-30T08:45:33.005Z,8376
2019-03-30T08:46:33.234Z,8484
2019-03-30T08:47:32.963Z,8432
2019-03-30T08:48:33.205Z,8456
2019-03-30T08:49:32.956Z,8456
2019-03-30T08:50:33.574Z,8476
2019-03-30T08:51:33.205Z,8488
2019-03-30T08:52:33.217Z,8504
2019-03-30T08:53:33.459Z,8516
2019-03-30T08:54:32.957Z,8540
2019-03-30T08:55:33.303Z,8552
2019-03-30T08:56:35.214Z,8568
2019-03-30T08:57:33.199Z,8580
2019-03-30T08:58:32.949Z,8588
2019-03-30T08:59:32.954Z,8592
2019-03-30T09:00:33.271Z,8604
2019-03-30T09:01:33.457Z,8624
2019-03-30T09:02:33.207Z,8632
2019-03-30T09:03:36.234Z,8640
2019-03-30T09:04:33.212Z,8640
2019-03-30T09:05:33.236Z,8672
2019-03-30T09:06:32.942Z,8672
2019-03-30T09:07:33.502Z,8664
2019-03-30T09:08:33.197Z,8668
2019-03-30T09:09:32.944Z,8688
2019-03-30T09:10:33.509Z,8692
2019-03-30T09:11:33.429Z,8680
2019-03-30T09:12:32.693Z,8648
2019-03-30T09:13:33.436Z,8632
2019-03-30T09:14:33.242Z,8624
2019-03-30T09:15:33.217Z,8616
2019-03-30T09:16:32.927Z,8600
2019-03-30T09:17:33.184Z,8584
2019-03-30T09:18:33.197Z,8584
2019-03-30T09:19:33.179Z,8552
2019-03-30T09:20:33.183Z,8532
2019-03-30T09:21:32.702Z,8516
2019-03-30T09:22:33.161Z,8500
2019-03-30T09:23:33.420Z,8484
2019-03-30T09:24:33.180Z,8468
2019-03-30T09:25:33.439Z,8440
2019-03-30T09:26:33.177Z,8412
2019-03-30T09:27:32.915Z,8384
2019-03-30T09:28:33.160Z,8360
2019-03-30T09:29:33.182Z,8336
2019-03-30T09:30:33.414Z,8316
2019-03-30T09:31:32.916Z,8288
2019-03-30T09:32:33.181Z,8256
2019-03-30T09:33:32.921Z,8236
2019-03-30T09:34:33.420Z,8208
2019-03-30T09:35:33.399Z,8184
2019-03-30T09:36:33.598Z,8152
2019-03-30T09:37:32.931Z,8124
2019-03-30T09:38:33.158Z,8096
2019-03-30T09:39:32.902Z,8064
2019-03-30T09:40:33.405Z,8052
2019-03-30T09:41:32.909Z,8024
2019-03-30T09:42:33.158Z,7996
2019-03-30T09:43:33.396Z,7968
2019-03-30T09:44:33.148Z,7944
2019-03-30T09:45:32.956Z,7916
2019-03-30T09:46:32.911Z,7900
2019-03-30T09:47:33.397Z,7884
2019-03-30T09:48:32.907Z,7864
2019-03-30T09:49:33.407Z,7848
2019-03-30T09:50:33.478Z,7824
2019-03-30T09:51:33.153Z,7804
2019-03-30T09:52:33.176Z,7788
2019-03-30T09:53:33.447Z,7772
2019-03-30T09:54:33.377Z,7740
2019-03-30T09:55:34.562Z,7716
2019-03-30T09:56:33.139Z,7704
2019-03-30T09:57:33.145Z,7688
2019-03-30T09:58:33.140Z,7680
2019-03-30T09:59:33.416Z,7664
2019-03-30T10:00:33.132Z,7656
2019-03-30T10:01:33.147Z,7640
2019-03-30T10:02:33.149Z,7632
2019-03-30T10:03:33.143Z,7624
2019-03-30T10:04:33.146Z,7604
2019-03-30T10:05:33.382Z,7592
2019-03-30T10:06:41.183Z,7584
2019-03-30T10:07:33.153Z,7580
2019-03-30T10:08:33.392Z,7568
2019-03-30T10:09:33.151Z,7572
2019-03-30T10:10:33.146Z,7556
2019-03-30T10:11:33.376Z,7540
2019-03-30T10:12:33.382Z,7512
2019-03-30T10:13:33.153Z,7496
2019-03-30T10:14:33.148Z,7488
2019-03-30T10:15:33.179Z,7476
2019-03-30T10:16:33.377Z,7452
2019-03-30T10:17:33.149Z,7448
2019-03-30T10:18:33.380Z,7436
2019-03-30T10:19:34.836Z,7408
2019-03-30T10:20:33.130Z,7392
2019-03-30T10:21:32.638Z,7376
2019-03-30T10:22:33.400Z,7364
2019-03-30T10:23:33.118Z,7344
2019-03-30T10:24:44.682Z,7332
2019-03-30T10:25:33.137Z,7316
2019-03-30T10:26:32.891Z,7308
2019-03-30T10:27:33.214Z,7288
2019-03-30T10:28:32.897Z,7272
2019-03-30T10:29:33.385Z,7256
2019-03-30T10:30:33.456Z,7240
2019-03-30T10:31:33.139Z,7232
2019-03-30T10:32:32.896Z,7212
2019-03-30T10:33:33.372Z,7204
2019-03-30T10:34:32.637Z,7184
2019-03-30T10:35:33.218Z,7164
2019-03-30T10:36:33.119Z,7148
2019-03-30T10:37:33.379Z,7144
2019-03-30T10:38:33.377Z,7128
2019-03-30T10:39:33.371Z,7128
2019-03-30T10:40:33.149Z,7108
2019-03-30T10:41:33.125Z,7096
2019-03-30T10:42:33.392Z,7084
2019-03-30T10:43:33.114Z,7076
2019-03-30T10:44:32.896Z,7056
2019-03-30T10:45:32.959Z,7040
2019-03-30T10:46:32.871Z,7020
2019-03-30T10:47:33.150Z,7004
2019-03-30T10:48:33.130Z,6984
2019-03-30T10:49:33.136Z,6968
2019-03-30T10:50:33.136Z,6952
2019-03-30T10:51:33.404Z,6932
2019-03-30T10:52:33.147Z,6920
2019-03-30T10:53:33.371Z,6904
2019-03-30T10:54:33.403Z,6892
2019-03-30T10:55:32.920Z,6884
2019-03-30T10:56:33.368Z,6868
2019-03-30T10:57:32.901Z,6852
2019-03-30T10:58:33.385Z,6860
2019-03-30T10:59:33.411Z,6852
2019-03-30T11:00:33.137Z,6840
2019-03-30T11:01:33.136Z,6836
2019-03-30T11:02:33.136Z,6848
2019-03-30T11:03:33.127Z,6836
2019-03-30T11:04:33.141Z,6816
2019-03-30T11:05:33.448Z,6816
2019-03-30T11:06:33.389Z,6804
2019-03-30T11:07:33.391Z,6800
2019-03-30T11:08:33.411Z,6792
2019-03-30T11:09:33.373Z,6796
2019-03-30T11:10:33.375Z,6780
2019-03-30T11:11:33.542Z,6780
2019-03-30T11:12:33.387Z,6796
2019-03-30T11:13:33.423Z,6792
2019-03-30T11:14:32.908Z,6784
2019-03-30T11:15:36.471Z,6792
2019-03-30T11:16:33.178Z,6784
2019-03-30T11:17:33.158Z,6760
2019-03-30T11:18:33.138Z,6764
2019-03-30T11:19:32.907Z,6744
2019-03-30T11:20:33.450Z,6720
2019-03-30T11:21:33.146Z,6728
2019-03-30T11:22:33.186Z,6684
2019-03-30T11:23:33.391Z,6676
2019-03-30T11:24:33.148Z,6680
2019-03-30T11:25:33.171Z,6672
2019-03-30T11:26:33.332Z,6644
2019-03-30T11:27:33.152Z,6636
2019-03-30T11:28:32.903Z,6632
2019-03-30T11:29:33.138Z,6616
2019-03-30T11:30:33.179Z,6604
2019-03-30T11:31:32.663Z,6600
2019-03-30T11:32:33.435Z,6608
2019-03-30T11:33:33.158Z,6588
2019-03-30T11:34:32.947Z,6552
2019-03-30T11:35:33.372Z,6560
2019-03-30T11:36:32.916Z,6536
2019-03-30T11:37:32.961Z,6512
2019-03-30T11:38:33.174Z,6516
2019-03-30T11:39:33.396Z,6492
2019-03-30T11:40:33.215Z,6464
2019-03-30T11:41:34.008Z,6464
2019-03-30T11:42:33.207Z,6452
2019-03-30T11:43:32.960Z,6428
2019-03-30T11:44:33.193Z,6400
2019-03-30T11:45:33.563Z,6388
2019-03-30T11:46:33.001Z,6384
2019-03-30T11:47:33.004Z,6376
2019-03-30T11:48:33.484Z,6368
2019-03-30T11:49:32.978Z,6356
2019-03-30T11:50:33.668Z,6332
2019-03-30T11:51:33.110Z,6308
2019-03-30T11:52:33.198Z,6288
2019-03-30T11:53:32.692Z,6264
2019-03-30T11:54:33.250Z,6252
2019-03-30T11:55:33.506Z,6240
2019-03-30T11:56:33.440Z,6228
2019-03-30T11:57:33.430Z,6224
2019-03-30T11:58:33.197Z,6212
2019-03-30T11:59:32.948Z,6204
2019-03-30T12:00:33.494Z,6208
2019-03-30T12:01:33.464Z,6196
2019-03-30T12:02:35.100Z,6180
2019-03-30T12:03:32.719Z,6168
2019-03-30T12:04:33.199Z,6164
2019-03-30T12:05:33.492Z,6160
2019-03-30T12:06:33.220Z,6156
2019-03-30T12:07:33.510Z,6140
2019-03-30T12:08:32.952Z,6124
2019-03-30T12:09:33.188Z,6116
2019-03-30T12:10:33.049Z,6116
2019-03-30T12:11:33.234Z,6112
2019-03-30T12:12:33.207Z,6104
2019-03-30T12:13:32.941Z,6092
2019-03-30T12:14:33.434Z,6076
2019-03-30T12:15:32.941Z,6068
2019-03-30T12:16:33.310Z,6048
2019-03-30T12:17:33.558Z,6044
2019-03-30T12:18:33.189Z,6036
2019-03-30T12:19:32.953Z,6036
2019-03-30T12:20:33.555Z,6020
2019-03-30T12:21:33.191Z,6016
2019-03-30T12:22:33.186Z,6004
2019-03-30T12:23:32.935Z,6000
2019-03-30T12:24:33.438Z,5996
2019-03-30T12:25:42.650Z,5984
2019-03-30T12:26:33.213Z,5972
2019-03-30T12:27:33.212Z,5956
2019-03-30T12:28:33.439Z,5952
2019-03-30T12:29:33.197Z,5948
2019-03-30T12:30:33.226Z,5944
2019-03-30T12:31:33.443Z,5936
2019-03-30T12:32:33.197Z,5936
2019-03-30T12:33:33.439Z,5952
2019-03-30T12:34:33.524Z,5956
2019-03-30T12:35:33.021Z,5956
2019-03-30T12:36:33.459Z,5948
2019-03-30T12:37:33.212Z,5944
2019-03-30T12:38:33.452Z,5948
2019-03-30T12:39:32.962Z,5940
2019-03-30T12:40:33.480Z,5936
2019-03-30T12:41:33.446Z,5932
2019-03-30T12:42:33.223Z,5936
2019-03-30T12:43:33.458Z,5924
2019-03-30T12:44:33.446Z,5916
2019-03-30T12:45:32.968Z,5896
2019-03-30T12:46:32.701Z,5888
2019-03-30T12:47:33.207Z,5872
2019-03-30T12:48:32.981Z,5860
2019-03-30T12:49:33.474Z,5852
2019-03-30T12:50:33.219Z,5856
2019-03-30T12:51:32.963Z,5860
2019-03-30T12:52:33.816Z,5872
2019-03-30T12:53:32.962Z,5860
2019-03-30T12:54:33.471Z,5852
2019-03-30T12:55:32.746Z,5856
2019-03-30T12:56:33.244Z,5840
2019-03-30T12:57:33.227Z,5820
2019-03-30T12:58:33.458Z,5808
2019-03-30T12:59:33.207Z,5792
2019-03-30T13:00:33.002Z,5796
2019-03-30T13:01:33.260Z,5788
2019-03-30T13:02:33.217Z,5788
2019-03-30T13:03:33.474Z,5772
2019-03-30T13:04:33.296Z,5772
2019-03-30T13:05:33.471Z,5764
2019-03-30T13:06:33.299Z,5748
2019-03-30T13:07:33.360Z,5740
2019-03-30T13:08:33.575Z,5724
2019-03-30T13:11:44.246Z,5692
2019-03-30T13:12:44.621Z,5680
2019-03-30T13:13:44.005Z,5668
2019-03-30T13:14:44.360Z,5656
2019-03-30T13:15:44.700Z,5648
2019-03-30T13:16:44.703Z,5632
2019-03-30T13:17:44.728Z,5624
2019-03-30T13:18:44.454Z,5612
2019-03-30T13:19:44.683Z,5596
2019-03-30T13:20:44.849Z,5580
2019-03-30T13:21:59.419Z,5572
2019-03-30T13:22:44.166Z,5560
2019-03-30T13:23:44.494Z,5540
2019-03-30T13:24:44.578Z,5544
2019-03-30T13:25:44.455Z,5516
2019-03-30T13:26:44.483Z,5520
2019-03-30T13:27:44.495Z,5516
2019-03-30T13:28:44.503Z,5504
2019-03-30T13:29:44.454Z,5508
2019-03-30T13:30:44.016Z,5480
2019-03-30T13:31:44.446Z,5464
2019-03-30T13:32:43.963Z,5432
2019-03-30T13:33:44.829Z,5432
2019-03-30T13:34:44.430Z,5420
2019-03-30T13:35:44.411Z,5428
2019-03-30T13:36:44.506Z,5424
2019-03-30T13:37:44.706Z,5432
2019-03-30T13:38:44.289Z,5420
2019-03-30T13:39:44.200Z,5420
2019-03-30T13:40:44.217Z,5424
2019-03-30T13:41:44.453Z,5416
2019-03-30T13:42:44.446Z,5420
2019-03-30T13:43:44.475Z,5416
2019-03-30T13:44:44.212Z,5416
2019-03-30T13:45:43.961Z,5408
2019-03-30T13:46:44.279Z,5408
2019-03-30T13:47:44.709Z,5400
2019-03-30T13:48:44.511Z,5388
2019-03-30T13:49:44.437Z,5384
2019-03-30T13:50:44.490Z,5388